createdAt,value
2019-05-22T00:02:31.976Z,14.30
2019-05-22T00:06:43.810Z,14.40
2019-05-22T00:10:49.732Z,14.00
2019-05-22T00:14:56.634Z,13.90
2019-05-22T00:19:03.480Z,14.20
2019-05-22T00:23:10.824Z,14.10
2019-05-22T00:27:17.998Z,14.10
2019-05-22T00:31:28.476Z,14.10
2019-05-22T00:35:37.038Z,14.10
2019-05-22T00:39:43.369Z,14.30
2019-05-22T00:43:51.610Z,14.40
2019-05-22T00:47:58.149Z,14.20
2019-05-22T00:52:20.637Z,14.30
2019-05-22T00:56:32.754Z,14.40
2019-05-22T01:00:44.842Z,14.20
2019-05-22T01:04:52.120Z,14.10
2019-05-22T01:09:05.775Z,14.20
2019-05-22T01:13:12.051Z,14.20
2019-05-22T01:17:19.956Z,14.10
2019-05-22T01:21:26.322Z,13.90
2019-05-22T01:25:34.457Z,13.90
2019-05-22T01:29:41.830Z,13.90
2019-05-22T01:33:52.486Z,13.70
2019-05-22T01:37:59.875Z,13.80
2019-05-22T01:42:10.538Z,13.90
2019-05-22T01:46:17.117Z,14.00
2019-05-22T01:50:50.042Z,14.20
2019-05-22T01:54:58.600Z,14.20
2019-05-22T01:59:05.444Z,14.10
2019-05-22T02:03:14.723Z,14.10
2019-05-22T02:07:20.814Z,13.90
2019-05-22T02:11:28.296Z,13.90
2019-05-22T02:15:35.927Z,14.00
2019-05-22T02:19:41.917Z,14.00
2019-05-22T02:23:48.750Z,14.00
2019-05-22T02:27:56.714Z,13.80
2019-05-22T02:32:04.286Z,13.70
2019-05-22T02:36:12.051Z,13.60
2019-05-22T02:40:26.135Z,13.90
2019-05-22T02:44:32.633Z,13.90
2019-05-22T02:48:42.477Z,13.70
2019-05-22T02:52:50.845Z,13.50
2019-05-22T02:56:57.206Z,13.40
2019-05-22T03:01:05.695Z,13.40
2019-05-22T03:05:13.278Z,13.50
2019-05-22T03:09:23.730Z,13.50
2019-05-22T03:14:01.172Z,13.50
2019-05-22T03:18:11.080Z,13.50
2019-05-22T03:22:34.677Z,13.50
2019-05-22T03:26:48.635Z,13.80
2019-05-22T03:30:55.602Z,13.90
2019-05-22T03:35:01.370Z,13.80
2019-05-22T03:39:12.087Z,13.80
2019-05-22T03:43:25.830Z,13.60
2019-05-22T03:47:32.450Z,13.70
2019-05-22T03:51:38.352Z,13.70
2019-05-22T03:55:45.174Z,13.60
2019-05-22T03:59:51.203Z,13.70
2019-05-22T04:03:58.590Z,13.90
2019-05-22T04:08:06.184Z,13.90
2019-05-22T04:12:13.493Z,14.00
2019-05-22T04:16:28.810Z,13.90
2019-05-22T04:20:35.169Z,13.90
2019-05-22T04:24:41.486Z,14.00
2019-05-22T04:28:52.136Z,14.00
2019-05-22T04:32:58.525Z,14.10
2019-05-22T04:37:05.531Z,13.90
2019-05-22T04:41:15.106Z,13.80
2019-05-22T04:45:21.882Z,13.80
2019-05-22T04:49:27.849Z,13.90
2019-05-22T04:53:34.146Z,13.90
2019-05-22T04:57:41.009Z,14.10
2019-05-22T05:01:48.372Z,14.20
2019-05-22T05:05:56.127Z,14.40
2019-05-22T05:10:02.057Z,14.20
2019-05-22T05:14:07.906Z,14.30
2019-05-22T05:18:14.638Z,14.20
2019-05-22T05:22:30.794Z,14.10
2019-05-22T05:26:38.548Z,14.20
2019-05-22T05:30:44.431Z,14.00
2019-05-22T05:34:54.837Z,14.00
2019-05-22T05:39:01.653Z,14.00
2019-05-22T05:43:09.994Z,13.90
2019-05-22T05:47:16.188Z,13.80
2019-05-22T05:51:25.651Z,13.80
2019-05-22T05:55:48.313Z,13.80
2019-05-22T05:59:55.015Z,13.70
2019-05-22T06:04:03.285Z,13.80
2019-05-22T06:08:09.524Z,13.80
2019-05-22T06:12:15.881Z,13.80
2019-05-22T06:16:26.645Z,13.80
2019-05-22T06:20:33.242Z,13.70
2019-05-22T06:24:52.417Z,13.80
2019-05-22T06:28:58.549Z,13.70
2019-05-22T06:33:13.574Z,13.80
2019-05-22T06:37:47.534Z,13.90
2019-05-22T06:41:54.353Z,14.00
2019-05-22T06:46:00.193Z,14.10
2019-05-22T06:50:08.328Z,14.30
2019-05-22T06:54:14.114Z,14.60
2019-05-22T06:58:20.245Z,14.90
2019-05-22T07:02:26.750Z,14.80
2019-05-22T07:06:34.201Z,15.10
2019-05-22T07:10:41.405Z,15.10
2019-05-22T07:14:57.847Z,15.20
2019-05-22T07:19:07.281Z,15.20
2019-05-22T07:23:15.056Z,15.50
2019-05-22T07:27:25.930Z,15.70
2019-05-22T07:31:32.158Z,15.60
2019-05-22T07:35:56.353Z,15.70
2019-05-22T07:39:47.667Z,15.90
2019-05-22T07:43:53.661Z,16.30
2019-05-22T07:48:01.027Z,16.30
2019-05-22T07:52:08.115Z,16.60
2019-05-22T07:56:16.213Z,16.50
2019-05-22T08:00:23.113Z,16.10
2019-05-22T08:04:31.723Z,15.80
2019-05-22T08:08:39.918Z,16.30
2019-05-22T08:12:45.683Z,16.70
2019-05-22T08:16:52.636Z,16.60
2019-05-22T08:21:00.175Z,16.70
2019-05-22T08:25:08.937Z,16.90
2019-05-22T08:29:17.070Z,16.90
2019-05-22T08:33:25.039Z,17.00
2019-05-22T08:41:41.467Z,17.00
2019-05-22T08:45:47.364Z,16.80
2019-05-22T08:49:54.054Z,16.90
2019-05-22T08:54:00.827Z,17.00
2019-05-22T08:58:07.730Z,17.00
2019-05-22T09:02:15.077Z,16.30
2019-05-22T09:06:21.195Z,15.70
2019-05-22T09:10:27.087Z,16.30
2019-05-22T09:14:32.898Z,17.70
2019-05-22T09:18:39.041Z,17.80
2019-05-22T09:22:47.097Z,18.60
2019-05-22T09:26:53.166Z,18.40
2019-05-22T09:30:59.842Z,18.10
2019-05-22T09:35:09.901Z,17.30
2019-05-22T09:39:16.097Z,17.20
2019-05-22T09:43:22.321Z,17.60
2019-05-22T09:47:29.272Z,17.60
2019-05-22T09:51:35.051Z,17.10
2019-05-22T09:55:40.775Z,16.90
2019-05-22T09:59:46.721Z,17.40
2019-05-22T10:03:53.544Z,17.40
2019-05-22T10:08:02.117Z,17.30
2019-05-22T10:12:08.986Z,17.50
2019-05-22T10:16:15.805Z,17.20
2019-05-22T10:20:22.976Z,17.70
2019-05-22T10:24:29.188Z,18.30
2019-05-22T10:28:35.993Z,18.30
2019-05-22T10:32:41.961Z,17.70
2019-05-22T10:36:48.154Z,17.70
2019-05-22T10:40:58.530Z,18.10
2019-05-22T10:45:02.293Z,18.50
2019-05-22T10:49:08.214Z,18.60
2019-05-22T10:53:30.582Z,18.10
2019-05-22T10:57:23.450Z,18.40
2019-05-22T11:01:30.753Z,18.70
2019-05-22T11:05:37.368Z,18.70
2019-05-22T11:09:44.615Z,19.20
2019-05-22T11:14:00.614Z,19.70
2019-05-22T11:17:58.781Z,19.50
2019-05-22T11:22:06.418Z,20.50
2019-05-22T11:26:15.415Z,20.90
2019-05-22T11:30:22.990Z,20.60
2019-05-22T11:34:29.601Z,20.30
2019-05-22T11:38:35.503Z,20.20
2019-05-22T11:42:41.763Z,21.20
2019-05-22T11:46:50.158Z,21.90
2019-05-22T11:51:01.070Z,23.20
2019-05-22T11:55:09.305Z,22.30
2019-05-22T11:59:16.403Z,22.40
2019-05-22T12:03:24.756Z,22.10
2019-05-22T12:07:30.523Z,23.10
2019-05-22T12:11:36.869Z,22.30
2019-05-22T12:15:42.889Z,23.20
2019-05-22T12:19:49.081Z,23.00
2019-05-22T12:23:55.204Z,23.30
2019-05-22T12:28:01.464Z,22.30
2019-05-22T12:32:09.560Z,21.50
2019-05-22T12:36:15.722Z,22.70
2019-05-22T12:40:25.709Z,22.20
2019-05-22T12:44:31.569Z,21.50
2019-05-22T12:48:42.798Z,22.40
2019-05-22T12:52:50.643Z,22.40
2019-05-22T12:56:56.740Z,23.40
2019-05-22T13:01:03.579Z,24.20
2019-05-22T13:05:14.298Z,24.70
2019-05-22T13:09:18.324Z,24.80
2019-05-22T13:13:24.562Z,25.10
2019-05-22T13:17:33.296Z,24.10
2019-05-22T13:21:40.576Z,24.80
2019-05-22T13:25:47.296Z,24.90
2019-05-22T13:29:55.329Z,25.50
2019-05-22T13:34:03.314Z,25.80
2019-05-22T13:38:09.610Z,25.40
2019-05-22T13:42:15.549Z,26.00
2019-05-22T13:46:21.488Z,25.50
2019-05-22T13:50:28.995Z,25.60
2019-05-22T13:54:35.949Z,25.50
2019-05-22T13:58:42.564Z,24.00
2019-05-22T14:02:48.869Z,23.90
2019-05-22T14:06:54.878Z,23.10
2019-05-22T14:11:00.825Z,23.40
2019-05-22T14:15:11.610Z,23.70
2019-05-22T14:19:18.164Z,23.90
2019-05-22T14:23:24.520Z,24.60
2019-05-22T14:27:30.458Z,24.70
2019-05-22T14:31:37.380Z,25.00
2019-05-22T14:35:48.823Z,25.30
2019-05-22T14:39:52.121Z,25.50
2019-05-22T14:43:58.410Z,25.70
2019-05-22T14:48:04.898Z,25.10
2019-05-22T14:52:11.538Z,24.80
2019-05-22T14:56:18.539Z,25.00
2019-05-22T15:00:24.758Z,24.00
2019-05-22T15:04:32.103Z,23.20
2019-05-22T15:08:38.014Z,23.20
2019-05-22T15:12:43.976Z,23.80
2019-05-22T15:16:49.988Z,23.90
2019-05-22T15:21:02.420Z,23.70
2019-05-22T15:25:10.015Z,23.20
2019-05-22T15:29:16.339Z,23.50
2019-05-22T15:33:22.917Z,23.50
2019-05-22T15:37:29.732Z,23.10
2019-05-22T15:41:38.182Z,23.00
2019-05-22T15:45:45.324Z,22.70
2019-05-22T15:49:51.038Z,22.70
2019-05-22T15:54:00.695Z,22.60
2019-05-22T15:58:07.889Z,22.40
2019-05-22T16:02:16.407Z,22.10
2019-05-22T16:06:26.366Z,22.10
2019-05-22T16:10:32.254Z,21.90
2019-05-22T16:14:39.253Z,21.80
2019-05-22T16:18:49.281Z,21.70
2019-05-22T16:22:56.050Z,21.70
2019-05-22T16:27:02.325Z,21.70
2019-05-22T16:31:10.504Z,21.70
2019-05-22T16:35:16.807Z,21.60
2019-05-22T16:39:23.929Z,21.10
2019-05-22T16:43:47.354Z,21.10
2019-05-22T16:47:38.309Z,21.10
2019-05-22T16:51:46.469Z,21.10
2019-05-22T16:55:52.244Z,21.10
2019-05-22T16:59:58.750Z,21.30
2019-05-22T17:04:06.215Z,21.30
2019-05-22T17:08:13.571Z,21.00
2019-05-22T17:12:20.379Z,20.80
2019-05-22T17:16:27.371Z,20.70
2019-05-22T17:20:33.928Z,20.70
2019-05-22T17:24:40.218Z,20.60
2019-05-22T17:28:46.901Z,20.60
2019-05-22T17:32:53.191Z,20.40
2019-05-22T17:37:00.465Z,20.30
2019-05-22T17:41:08.407Z,20.10
2019-05-22T17:45:18.037Z,20.10
2019-05-22T17:49:24.598Z,19.90
2019-05-22T17:53:30.925Z,19.90
2019-05-22T17:57:37.734Z,19.90
2019-05-22T18:01:43.844Z,19.90
2019-05-22T18:05:50.239Z,19.90
2019-05-22T18:09:56.470Z,19.80
2019-05-22T18:14:04.675Z,19.70
2019-05-22T18:18:11.282Z,19.70
2019-05-22T18:22:17.133Z,19.70
2019-05-22T18:26:23.410Z,19.70
2019-05-22T18:30:30.828Z,19.50
2019-05-22T18:34:36.589Z,19.50
2019-05-22T18:38:42.342Z,19.30
2019-05-22T18:42:48.902Z,19.20
2019-05-22T18:46:54.854Z,19.00
2019-05-22T18:51:01.084Z,18.70
2019-05-22T18:55:07.949Z,18.80
2019-05-22T18:59:13.813Z,18.70
2019-05-22T19:03:19.754Z,18.50
2019-05-22T19:07:25.584Z,18.30
2019-05-22T19:11:31.422Z,18.60
2019-05-22T19:15:37.580Z,18.60
2019-05-22T19:19:52.955Z,18.10
2019-05-22T19:23:58.956Z,17.90
2019-05-22T19:28:05.102Z,17.50
2019-05-22T19:32:11.002Z,17.30
2019-05-22T19:36:16.763Z,17.40
2019-05-22T19:40:25.580Z,17.30
2019-05-22T19:44:32.154Z,17.10
2019-05-22T19:48:38.008Z,16.90
2019-05-22T19:52:44.745Z,16.90
2019-05-22T19:56:51.993Z,17.00
2019-05-22T20:00:57.878Z,16.80
2019-05-22T20:05:06.901Z,16.80
2019-05-22T20:09:13.360Z,17.00
2019-05-22T20:13:22.014Z,17.10
2019-05-22T20:17:28.196Z,16.80
2019-05-22T20:21:34.763Z,16.80
2019-05-22T20:25:43.477Z,16.50
2019-05-22T20:29:49.830Z,16.10
2019-05-22T20:33:55.771Z,16.20
2019-05-22T20:38:02.175Z,16.10
2019-05-22T20:42:09.488Z,15.90
2019-05-22T20:46:18.667Z,15.70
2019-05-22T20:50:26.138Z,15.50
2019-05-22T20:54:32.720Z,15.30
2019-05-22T20:58:40.190Z,15.30
2019-05-22T21:02:46.781Z,15.10
2019-05-22T21:07:00.505Z,15.00
2019-05-22T21:11:08.793Z,15.10
2019-05-22T21:15:16.094Z,15.00
2019-05-22T21:19:24.152Z,14.80
2019-05-22T21:23:31.179Z,14.70
2019-05-22T21:27:38.488Z,14.70
2019-05-22T21:31:47.475Z,14.70
2019-05-22T21:35:52.891Z,14.70
2019-05-22T21:39:59.274Z,14.70
2019-05-22T21:44:05.313Z,15.10
2019-05-22T21:52:19.028Z,15.30
2019-05-22T21:56:25.161Z,14.70
2019-05-22T22:00:39.587Z,14.50
2019-05-22T22:04:46.760Z,14.70
2019-05-22T22:08:53.833Z,15.00
2019-05-22T22:12:59.802Z,14.60
2019-05-22T22:17:07.653Z,14.60
2019-05-22T22:21:15.359Z,14.80
2019-05-22T22:25:23.991Z,14.50
2019-05-22T22:29:30.306Z,14.30
2019-05-22T22:33:40.017Z,14.00
2019-05-22T22:37:46.596Z,14.20
2019-05-22T22:41:54.075Z,14.30
2019-05-22T22:46:22.959Z,14.00
2019-05-22T22:50:31.176Z,13.80
2019-05-22T22:54:37.807Z,13.50
2019-05-22T22:58:44.790Z,13.50
2019-05-22T23:02:51.869Z,13.60
2019-05-22T23:07:02.518Z,13.80
2019-05-22T23:11:09.201Z,13.60
2019-05-22T23:15:18.475Z,13.80
2019-05-22T23:19:35.137Z,14.10
2019-05-22T23:23:40.917Z,14.10
2019-05-22T23:27:47.329Z,14.00
2019-05-22T23:31:55.170Z,13.50
2019-05-22T23:36:01.807Z,13.20
2019-05-22T23:40:08.992Z,13.20
2019-05-22T23:44:19.516Z,13.10
2019-05-22T23:48:27.595Z,13.00
2019-05-22T23:52:33.788Z,13.40
2019-05-22T23:56:41.664Z,13.30
